createdAt,value
2018-01-16T00:00:49.391Z,4.70
2018-01-16T00:03:17.290Z,4.70
2018-01-16T00:05:44.790Z,4.70
2018-01-16T00:08:12.355Z,4.60
2018-01-16T00:10:39.844Z,4.70
2018-01-16T00:13:07.339Z,4.70
2018-01-16T00:15:34.947Z,4.80
2018-01-16T00:18:02.487Z,4.80
2018-01-16T00:20:30.283Z,4.80
2018-01-16T00:22:58.133Z,4.70
2018-01-16T00:25:26.654Z,4.80
2018-01-16T00:27:54.527Z,4.80
2018-01-16T00:30:22.247Z,4.90
2018-01-16T00:32:50.283Z,4.90
2018-01-16T00:35:17.779Z,4.80
2018-01-16T00:37:46.426Z,4.80
2018-01-16T00:40:13.932Z,4.80
2018-01-16T00:42:41.678Z,4.80
2018-01-16T00:45:09.746Z,4.90
2018-01-16T00:47:37.244Z,5.00
2018-01-16T00:50:05.290Z,5.00
2018-01-16T00:52:33.039Z,5.00
2018-01-16T00:55:01.115Z,5.00
2018-01-16T00:57:28.667Z,5.10
2018-01-16T00:59:57.337Z,5.10
2018-01-16T01:02:25.530Z,5.20
2018-01-16T01:04:53.035Z,5.20
2018-01-16T01:07:20.535Z,5.20
2018-01-16T01:09:48.155Z,5.20
2018-01-16T01:12:17.214Z,5.20
2018-01-16T01:14:45.375Z,5.20
2018-01-16T01:17:13.455Z,5.20
2018-01-16T01:19:42.164Z,5.20
2018-01-16T01:22:09.667Z,5.30
2018-01-16T01:24:37.893Z,5.30
2018-01-16T01:27:06.141Z,5.30
2018-01-16T01:29:34.103Z,5.30
2018-01-16T01:32:02.482Z,5.30
2018-01-16T01:34:30.502Z,5.30
2018-01-16T01:36:58.320Z,5.30
2018-01-16T01:39:26.078Z,5.30
2018-01-16T01:41:53.583Z,5.30
2018-01-16T01:44:21.262Z,5.30
2018-01-16T01:46:48.770Z,5.30
2018-01-16T01:49:16.787Z,5.40
2018-01-16T01:51:44.287Z,5.40
2018-01-16T01:54:11.783Z,5.40
2018-01-16T01:56:39.487Z,5.40
2018-01-16T01:59:07.411Z,5.50
2018-01-16T02:01:35.954Z,5.40
2018-01-16T02:04:03.719Z,5.40
2018-01-16T02:06:31.225Z,5.50
2018-01-16T02:08:59.099Z,5.50
2018-01-16T02:11:26.886Z,5.50
2018-01-16T02:13:54.767Z,5.50
2018-01-16T02:16:22.535Z,5.50
2018-01-16T02:18:50.039Z,5.50
2018-01-16T02:21:17.538Z,5.50
2018-01-16T02:23:45.211Z,5.60
2018-01-16T02:26:12.988Z,5.60
2018-01-16T02:28:40.742Z,5.50
2018-01-16T02:31:08.236Z,5.60
2018-01-16T02:33:35.958Z,5.60
2018-01-16T02:36:04.374Z,5.60
2018-01-16T02:38:32.439Z,5.60
2018-01-16T02:40:59.947Z,5.50
2018-01-16T02:43:28.263Z,5.50
2018-01-16T02:45:56.358Z,5.50
2018-01-16T02:48:24.055Z,5.40
2018-01-16T02:50:51.553Z,5.40
2018-01-16T02:53:19.051Z,5.30
2018-01-16T02:55:48.479Z,5.30
2018-01-16T02:58:16.355Z,5.30
2018-01-16T03:00:43.850Z,5.30
2018-01-16T03:03:11.439Z,5.30
2018-01-16T03:05:39.342Z,5.30
2018-01-16T03:08:07.250Z,5.30
2018-01-16T03:10:34.730Z,5.40
2018-01-16T03:13:02.322Z,5.40
2018-01-16T03:15:29.828Z,5.40
2018-01-16T03:17:57.851Z,5.50
2018-01-16T03:20:25.611Z,5.40
2018-01-16T03:22:53.379Z,5.50
2018-01-16T03:25:20.883Z,5.40
2018-01-16T03:27:48.633Z,5.50
2018-01-16T03:30:16.366Z,5.40
2018-01-16T03:32:44.863Z,5.40
2018-01-16T03:35:12.464Z,5.40
2018-01-16T03:37:41.243Z,5.40
2018-01-16T03:40:08.749Z,5.40
2018-01-16T03:42:36.242Z,5.40
2018-01-16T03:45:03.744Z,5.40
2018-01-16T03:47:31.627Z,5.50
2018-01-16T03:49:59.704Z,5.40
2018-01-16T03:52:28.101Z,5.40
2018-01-16T03:54:56.267Z,5.40
2018-01-16T03:57:24.835Z,5.40
2018-01-16T03:59:52.903Z,5.30
2018-01-16T04:02:20.668Z,5.40
2018-01-16T04:04:48.738Z,5.40
2018-01-16T04:07:16.499Z,5.40
2018-01-16T04:09:45.041Z,5.40
2018-01-16T04:12:13.298Z,5.40
2018-01-16T04:14:41.041Z,5.40
2018-01-16T04:17:09.966Z,5.30
2018-01-16T04:19:37.466Z,5.30
2018-01-16T04:22:04.966Z,5.30
2018-01-16T04:24:32.460Z,5.30
2018-01-16T04:27:00.351Z,5.30
2018-01-16T04:29:27.906Z,5.20
2018-01-16T04:31:55.683Z,5.20
2018-01-16T04:34:23.176Z,5.20
2018-01-16T04:36:50.667Z,5.10
2018-01-16T04:39:19.415Z,5.00
2018-01-16T04:41:47.683Z,4.90
2018-01-16T04:44:15.392Z,5.00
2018-01-16T04:46:42.900Z,4.90
2018-01-16T04:49:10.390Z,4.80
2018-01-16T04:51:37.907Z,4.90
2018-01-16T04:54:05.807Z,4.90
2018-01-16T04:56:33.619Z,4.80
2018-01-16T04:59:01.123Z,4.80
2018-01-16T05:01:29.010Z,4.80
2018-01-16T05:03:56.565Z,4.80
2018-01-16T05:06:24.059Z,4.90
2018-01-16T05:08:51.554Z,4.80
2018-01-16T05:11:19.280Z,4.90
2018-01-16T05:13:46.775Z,4.80
2018-01-16T05:16:14.270Z,4.90
2018-01-16T05:18:42.303Z,4.80
2018-01-16T05:21:10.822Z,4.80
2018-01-16T05:23:38.414Z,4.90
2018-01-16T05:26:06.723Z,4.90
2018-01-16T05:28:34.987Z,4.80
2018-01-16T05:31:02.925Z,4.70
2018-01-16T05:33:30.382Z,4.80
2018-01-16T05:35:58.759Z,4.80
2018-01-16T05:38:28.223Z,4.80
2018-01-16T05:40:56.630Z,4.70
2018-01-16T05:43:24.550Z,4.70
2018-01-16T05:45:52.215Z,4.80
2018-01-16T05:48:20.682Z,4.80
2018-01-16T05:50:48.184Z,4.80
2018-01-16T05:53:16.790Z,4.80
2018-01-16T05:55:44.287Z,4.80
2018-01-16T05:58:12.011Z,4.90
2018-01-16T06:00:40.087Z,4.90
2018-01-16T06:03:07.616Z,4.80
2018-01-16T06:05:35.926Z,4.80
2018-01-16T06:08:04.066Z,4.80
2018-01-16T06:10:32.383Z,4.80
2018-01-16T06:13:00.127Z,4.80
2018-01-16T06:15:28.205Z,4.80
2018-01-16T06:17:55.690Z,4.80
2018-01-16T06:20:23.423Z,4.80
2018-01-16T06:22:51.231Z,4.70
2018-01-16T06:25:18.740Z,4.70
2018-01-16T06:27:47.202Z,4.80
2018-01-16T06:30:15.064Z,4.80
2018-01-16T06:32:43.318Z,4.70
2018-01-16T06:35:10.923Z,4.60
2018-01-16T06:37:38.951Z,4.70
2018-01-16T06:40:06.763Z,4.70
2018-01-16T06:42:35.470Z,4.60
2018-01-16T06:45:03.170Z,4.60
2018-01-16T06:47:30.662Z,4.60
2018-01-16T06:49:58.155Z,4.60
2018-01-16T06:52:25.771Z,4.50
2018-01-16T06:54:53.294Z,4.50
2018-01-16T06:57:21.153Z,4.60
2018-01-16T06:59:48.603Z,4.60
2018-01-16T07:02:16.109Z,4.40
2018-01-16T07:04:43.600Z,4.40
2018-01-16T07:07:11.210Z,4.20
2018-01-16T07:09:39.094Z,3.90
2018-01-16T07:12:06.607Z,6.20
2018-01-16T07:14:34.118Z,6.90
2018-01-16T07:17:01.983Z,7.40
2018-01-16T07:19:30.263Z,7.30
2018-01-16T07:21:57.818Z,6.90
2018-01-16T07:24:25.310Z,5.10
2018-01-16T07:26:53.435Z,4.40
2018-01-16T07:29:21.670Z,4.00
2018-01-16T07:31:49.487Z,3.90
2018-01-16T07:34:17.520Z,3.90
2018-01-16T07:36:45.808Z,3.80
2018-01-16T07:39:13.686Z,3.80
2018-01-16T07:41:41.187Z,3.80
2018-01-16T07:44:08.924Z,3.90
2018-01-16T07:46:36.683Z,4.00
2018-01-16T07:49:04.580Z,4.10
2018-01-16T07:51:32.203Z,4.10
2018-01-16T07:54:00.095Z,4.20
2018-01-16T07:56:27.695Z,4.20
2018-01-16T07:58:55.506Z,4.10
2018-01-16T08:01:24.057Z,4.10
2018-01-16T08:03:52.312Z,4.10
2018-01-16T08:06:20.027Z,4.20
2018-01-16T08:08:47.528Z,4.20
2018-01-16T08:11:15.239Z,4.20
2018-01-16T08:13:42.734Z,4.30
2018-01-16T08:16:11.138Z,4.20
2018-01-16T08:18:38.637Z,4.20
2018-01-16T08:21:06.135Z,4.20
2018-01-16T08:23:34.672Z,4.20
2018-01-16T08:26:02.751Z,4.20
2018-01-16T08:28:30.500Z,4.20
2018-01-16T08:30:57.939Z,4.20
2018-01-16T08:33:25.426Z,4.20
2018-01-16T08:35:52.919Z,4.20
2018-01-16T08:38:20.419Z,4.20
2018-01-16T08:40:48.094Z,4.10
2018-01-16T08:43:15.990Z,4.10
2018-01-16T08:45:44.387Z,4.10
2018-01-16T08:48:12.290Z,4.10
2018-01-16T08:50:40.136Z,4.10
2018-01-16T08:53:08.147Z,4.10
2018-01-16T08:55:36.042Z,4.00
2018-01-16T08:58:03.679Z,3.90
2018-01-16T09:00:31.962Z,3.80
2018-01-16T09:03:00.535Z,3.80
2018-01-16T09:05:28.195Z,3.80
2018-01-16T09:07:55.960Z,3.80
2018-01-16T09:10:23.719Z,3.70
2018-01-16T09:12:51.208Z,3.80
2018-01-16T09:15:19.918Z,3.70
2018-01-16T09:17:48.591Z,3.60
2018-01-16T09:20:16.079Z,3.60
2018-01-16T09:22:44.347Z,3.70
2018-01-16T09:25:12.350Z,3.70
2018-01-16T09:27:39.903Z,3.60
2018-01-16T09:30:07.394Z,3.60
2018-01-16T09:32:35.084Z,3.60
2018-01-16T09:35:02.598Z,3.60
2018-01-16T09:37:30.356Z,3.80
2018-01-16T09:39:58.413Z,3.80
2018-01-16T09:42:26.211Z,3.90
2018-01-16T09:44:53.712Z,3.90
2018-01-16T09:47:21.419Z,4.00
2018-01-16T09:49:49.163Z,4.10
2018-01-16T09:52:16.657Z,4.10
2018-01-16T09:54:44.955Z,4.00
2018-01-16T09:57:13.635Z,4.10
2018-01-16T09:59:41.137Z,4.10
2018-01-16T10:02:08.626Z,4.20
2018-01-16T10:04:36.127Z,4.20
2018-01-16T10:07:03.631Z,4.10
2018-01-16T10:09:31.963Z,4.10
2018-01-16T10:11:59.470Z,4.10
2018-01-16T10:14:27.807Z,4.20
2018-01-16T10:16:56.079Z,4.10
2018-01-16T10:19:23.575Z,4.20
2018-01-16T10:21:51.068Z,4.30
2018-01-16T10:24:18.732Z,4.30
2018-01-16T10:26:46.229Z,4.40
2018-01-16T10:29:13.942Z,4.50
2018-01-16T10:31:41.845Z,4.60
2018-01-16T10:34:09.476Z,4.50
2018-01-16T10:36:38.259Z,4.40
2018-01-16T10:39:06.278Z,4.50
2018-01-16T10:41:34.668Z,4.40
2018-01-16T10:44:03.034Z,4.40
2018-01-16T10:46:30.546Z,4.40
2018-01-16T10:48:58.196Z,4.50
2018-01-16T10:51:26.633Z,4.50
2018-01-16T10:53:56.120Z,4.50
2018-01-16T10:56:23.659Z,4.40
2018-01-16T10:58:51.725Z,4.40
2018-01-16T11:01:19.222Z,4.40
2018-01-16T11:03:46.723Z,4.50
2018-01-16T11:06:14.323Z,4.50
2018-01-16T11:08:42.455Z,4.40
2018-01-16T11:11:10.466Z,4.40
2018-01-16T11:13:37.998Z,4.40
2018-01-16T11:16:05.497Z,4.50
2018-01-16T11:18:33.103Z,4.40
2018-01-16T11:21:01.364Z,4.30
2018-01-16T11:23:29.091Z,4.40
2018-01-16T11:25:56.856Z,4.40
2018-01-16T11:28:25.072Z,4.40
2018-01-16T11:30:53.338Z,4.40
2018-01-16T11:33:21.073Z,4.30
2018-01-16T11:35:49.206Z,4.40
2018-01-16T11:38:17.343Z,4.50
2018-01-16T11:40:45.068Z,4.50
2018-01-16T11:43:13.694Z,4.50
2018-01-16T11:45:41.190Z,4.40
2018-01-16T12:05:29.045Z,4.60
2018-01-16T12:07:56.546Z,4.70
2018-01-16T12:10:24.031Z,4.60
2018-01-16T12:12:51.722Z,4.60
2018-01-16T12:15:19.609Z,4.60
2018-01-16T12:17:47.277Z,4.70
2018-01-16T12:20:14.768Z,4.80
2018-01-16T12:22:42.671Z,4.70
2018-01-16T12:25:10.244Z,4.70
2018-01-16T12:27:38.170Z,4.70
2018-01-16T12:30:05.690Z,4.90
2018-01-16T12:32:33.238Z,4.90
2018-01-16T12:35:00.738Z,4.80
2018-01-16T12:37:28.447Z,4.80
2018-01-16T12:39:57.052Z,4.90
2018-01-16T12:42:24.591Z,4.90
2018-01-16T12:44:52.659Z,4.90
2018-01-16T12:47:20.149Z,4.80
2018-01-16T12:49:48.802Z,4.80
2018-01-16T12:52:16.887Z,4.90
2018-01-16T12:54:44.378Z,4.80
2018-01-16T12:57:12.041Z,4.70
2018-01-16T12:59:39.658Z,4.80
2018-01-16T13:02:07.600Z,4.90
2018-01-16T13:04:35.099Z,4.70
2018-01-16T13:07:03.042Z,4.80
2018-01-16T13:09:30.946Z,4.70
2018-01-16T13:11:58.771Z,4.70
2018-01-16T13:14:26.249Z,4.90
2018-01-16T13:16:54.395Z,4.90
2018-01-16T13:19:22.151Z,5.00
2018-01-16T13:21:50.171Z,4.90
2018-01-16T13:24:17.776Z,4.90
2018-01-16T13:26:45.894Z,4.80
2018-01-16T13:29:13.643Z,4.90
2018-01-16T13:31:41.955Z,4.80
2018-01-16T13:34:10.090Z,4.90
2018-01-16T13:36:37.591Z,4.80
2018-01-16T13:39:05.451Z,4.70
2018-01-16T13:41:32.940Z,4.80
2018-01-16T13:44:00.536Z,4.90
2018-01-16T13:46:28.037Z,4.80
2018-01-16T13:48:56.059Z,4.70
2018-01-16T13:51:23.823Z,3.80
2018-01-16T13:53:51.578Z,3.30
2018-01-16T13:56:19.071Z,3.20
2018-01-16T13:58:47.909Z,3.20
2018-01-16T14:01:15.496Z,3.10
2018-01-16T14:03:44.172Z,3.20
2018-01-16T14:06:12.243Z,3.10
2018-01-16T14:08:40.672Z,3.20
2018-01-16T14:11:08.157Z,3.20
2018-01-16T14:13:35.802Z,3.20
2018-01-16T14:16:03.604Z,3.10
2018-01-16T14:18:31.095Z,3.20
2018-01-16T14:20:59.465Z,3.10
2018-01-16T14:23:29.540Z,3.10
2018-01-16T14:25:57.349Z,3.20
2018-01-16T14:28:24.874Z,3.20
2018-01-16T14:30:52.375Z,3.20
2018-01-16T14:33:20.643Z,3.20
2018-01-16T14:35:49.802Z,3.20
2018-01-16T14:38:17.467Z,3.20
2018-01-16T14:40:44.967Z,3.30
2018-01-16T14:43:12.964Z,3.30
2018-01-16T14:45:41.204Z,3.20
2018-01-16T14:48:09.101Z,3.20
2018-01-16T14:50:36.596Z,3.20
2018-01-16T14:53:04.088Z,3.30
2018-01-16T14:55:31.984Z,3.30
2018-01-16T14:57:59.862Z,3.30
2018-01-16T15:00:27.359Z,3.30
2018-01-16T15:02:57.742Z,3.30
2018-01-16T15:05:25.222Z,3.40
2018-01-16T15:07:53.487Z,3.30
2018-01-16T15:10:21.163Z,3.30
2018-01-16T15:12:49.051Z,3.40
2018-01-16T15:15:16.664Z,3.40
2018-01-16T15:17:44.723Z,3.40
2018-01-16T15:20:12.219Z,3.40
2018-01-16T15:22:39.975Z,3.50
2018-01-16T15:25:07.738Z,3.40
2018-01-16T15:27:35.623Z,3.40
2018-01-16T15:30:03.115Z,3.40
2018-01-16T15:32:31.316Z,3.40
2018-01-16T15:34:58.810Z,3.40
2018-01-16T15:37:26.559Z,3.40
2018-01-16T15:39:54.828Z,3.40
2018-01-16T15:42:22.361Z,3.40
2018-01-16T15:44:50.463Z,3.40
2018-01-16T15:47:18.552Z,3.30
2018-01-16T15:49:46.049Z,3.30
2018-01-16T15:52:13.541Z,3.30
2018-01-16T15:54:42.330Z,3.20
2018-01-16T15:57:09.823Z,3.10
2018-01-16T15:59:38.277Z,3.10
2018-01-16T16:02:05.776Z,3.20
2018-01-16T16:04:34.179Z,3.20
2018-01-16T16:07:01.846Z,3.10
2018-01-16T16:09:29.946Z,3.00
2018-01-16T16:11:58.321Z,2.90
2018-01-16T16:14:26.391Z,2.90
2018-01-16T16:16:54.431Z,2.80
2018-01-16T16:19:22.479Z,2.90
2018-01-16T16:21:49.979Z,2.80
2018-01-16T16:24:17.759Z,2.70
2018-01-16T16:26:45.251Z,2.60
2018-01-16T16:29:12.956Z,2.70
2018-01-16T16:31:40.859Z,2.70
2018-01-16T16:34:08.359Z,2.70
2018-01-16T16:36:35.964Z,2.60
2018-01-16T16:39:03.726Z,2.70
2018-01-16T16:41:31.229Z,2.60
2018-01-16T16:43:59.543Z,2.70
2018-01-16T16:46:27.810Z,2.70
2018-01-16T16:48:55.305Z,2.60
2018-01-16T16:51:23.191Z,2.40
2018-01-16T16:53:51.410Z,2.40
2018-01-16T16:56:19.315Z,2.40
2018-01-16T16:58:47.331Z,2.50
2018-01-16T17:01:16.439Z,2.50
2018-01-16T17:03:43.939Z,2.50
2018-01-16T17:06:11.575Z,2.50
2018-01-16T17:08:39.498Z,2.50
2018-01-16T17:11:07.411Z,2.60
2018-01-16T17:13:35.756Z,2.50
2018-01-16T17:16:03.380Z,2.50
2018-01-16T17:18:30.890Z,2.60
2018-01-16T17:20:58.471Z,2.60
2018-01-16T17:23:26.338Z,2.50
2018-01-16T17:25:53.818Z,2.50
2018-01-16T17:28:21.340Z,2.50
2018-01-16T17:30:48.866Z,2.50
2018-01-16T17:33:16.591Z,2.60
2018-01-16T17:35:44.128Z,3.30
2018-01-16T17:38:12.024Z,4.10
2018-01-16T17:40:39.656Z,4.40
2018-01-16T17:43:07.557Z,4.50
2018-01-16T17:45:35.131Z,4.20
2018-01-16T17:48:02.659Z,3.80
2018-01-16T17:50:30.407Z,3.50
2018-01-16T17:52:57.912Z,3.30
2018-01-16T17:55:25.483Z,3.20
2018-01-16T17:57:53.957Z,3.20
2018-01-16T18:00:21.855Z,3.20
2018-01-16T18:02:49.344Z,3.40
2018-01-16T18:05:17.294Z,5.80
2018-01-16T18:07:45.076Z,6.30
2018-01-16T18:10:12.575Z,7.00
2018-01-16T18:12:40.067Z,6.10
2018-01-16T18:15:07.628Z,4.40
2018-01-16T18:17:36.799Z,3.80
2018-01-16T18:20:05.091Z,3.60
2018-01-16T18:22:32.886Z,3.40
2018-01-16T18:25:01.891Z,3.40
2018-01-16T18:27:29.780Z,3.30
2018-01-16T18:29:58.042Z,3.30
2018-01-16T18:32:25.845Z,3.20
2018-01-16T18:34:53.342Z,3.20
2018-01-16T18:37:20.979Z,3.10
2018-01-16T18:39:48.484Z,3.20
2018-01-16T18:42:15.987Z,3.20
2018-01-16T18:44:43.655Z,3.20
2018-01-16T18:47:11.427Z,3.20
2018-01-16T18:49:39.774Z,3.30
2018-01-16T18:52:07.270Z,3.30
2018-01-16T18:54:35.539Z,3.30
2018-01-16T18:57:03.047Z,3.40
2018-01-16T18:59:30.551Z,3.30
2018-01-16T19:01:58.747Z,3.30
2018-01-16T19:04:26.336Z,3.10
2018-01-16T19:06:53.834Z,3.10
2018-01-16T19:09:21.563Z,3.10
2018-01-16T19:11:49.639Z,3.10
2018-01-16T19:14:17.143Z,3.00
2018-01-16T19:16:45.435Z,3.10
2018-01-16T19:19:12.941Z,3.10
2018-01-16T19:21:40.850Z,3.10
2018-01-16T19:24:08.776Z,3.00
2018-01-16T19:26:36.563Z,3.10
2018-01-16T19:29:04.067Z,3.00
2018-01-16T19:31:31.979Z,3.00
2018-01-16T19:33:59.511Z,3.00
2018-01-16T19:36:27.015Z,3.00
2018-01-16T19:38:54.905Z,3.10
2018-01-16T19:41:23.171Z,3.10
2018-01-16T19:43:51.054Z,3.20
2018-01-16T19:46:19.323Z,3.20
2018-01-16T19:48:46.821Z,3.10
2018-01-16T19:51:15.083Z,3.00
2018-01-16T19:53:42.587Z,2.90
2018-01-16T19:56:10.607Z,2.90
2018-01-16T19:58:38.762Z,2.90
2018-01-16T20:01:07.337Z,2.90
2018-01-16T20:03:35.779Z,2.90
2018-01-16T20:06:03.290Z,2.90
2018-01-16T20:08:30.799Z,2.90
2018-01-16T20:10:58.454Z,2.70
2018-01-16T20:13:26.224Z,2.80
2018-01-16T20:15:53.743Z,2.90
2018-01-16T20:18:21.444Z,2.90
2018-01-16T20:20:48.947Z,2.80
2018-01-16T20:23:17.297Z,2.90
2018-01-16T20:25:46.307Z,3.00
2018-01-16T20:28:13.972Z,2.80
2018-01-16T20:30:42.072Z,2.80
2018-01-16T20:33:09.974Z,2.90
2018-01-16T20:35:38.239Z,2.90
2018-01-16T20:38:06.507Z,2.90
2018-01-16T20:40:34.755Z,2.80
2018-01-16T20:43:03.071Z,2.80
2018-01-16T20:45:30.836Z,2.90
2018-01-16T20:48:01.526Z,3.00
2018-01-16T20:50:29.086Z,3.00
2018-01-16T20:52:56.586Z,3.10
2018-01-16T20:55:24.106Z,3.00
2018-01-16T20:57:51.784Z,3.00
2018-01-16T21:00:19.568Z,3.10
2018-01-16T21:02:53.223Z,3.10
2018-01-16T21:05:21.198Z,3.10
2018-01-16T21:07:48.704Z,2.90
2018-01-16T21:10:16.219Z,3.00
2018-01-16T21:12:43.912Z,3.00
2018-01-16T21:15:12.077Z,2.90
2018-01-16T21:17:41.901Z,2.90
2018-01-16T21:20:10.045Z,2.80
2018-01-16T21:22:38.347Z,2.80
2018-01-16T21:25:07.576Z,2.80
2018-01-16T21:27:35.107Z,2.80
2018-01-16T21:30:06.023Z,2.80
2018-01-16T21:32:33.703Z,2.60
2018-01-16T21:35:01.215Z,2.60
2018-01-16T21:37:29.138Z,2.50
2018-01-16T21:39:57.062Z,2.70
2018-01-16T21:42:24.832Z,2.80
2018-01-16T21:44:52.768Z,2.80
2018-01-16T21:47:20.254Z,2.80
2018-01-16T21:49:48.146Z,2.60
2018-01-16T21:52:15.811Z,2.80
2018-01-16T21:54:43.312Z,3.10
2018-01-16T21:57:11.722Z,3.20
2018-01-16T21:59:40.665Z,3.10
2018-01-16T22:02:08.164Z,3.20
2018-01-16T22:04:35.712Z,3.20
2018-01-16T22:07:03.629Z,3.10
2018-01-16T22:09:31.326Z,3.10
2018-01-16T22:11:59.455Z,3.10
2018-01-16T22:14:27.223Z,3.20
2018-01-16T22:16:55.018Z,3.20
2018-01-16T22:19:22.481Z,3.10
2018-01-16T22:21:50.167Z,2.90
2018-01-16T22:24:17.793Z,3.10
2018-01-16T22:26:45.391Z,3.10
2018-01-16T22:29:13.187Z,3.00
2018-01-16T22:31:41.255Z,3.00
2018-01-16T22:34:09.169Z,3.00
2018-01-16T22:36:38.331Z,3.00
2018-01-16T22:39:05.884Z,3.10
2018-01-16T22:41:34.155Z,3.00
2018-01-16T22:44:02.155Z,3.00
2018-01-16T22:46:29.661Z,3.00
2018-01-16T22:48:57.170Z,3.00
2018-01-16T22:51:24.880Z,3.00
2018-01-16T22:53:52.541Z,3.00
2018-01-16T22:56:20.778Z,3.10
2018-01-16T22:58:48.498Z,2.90
2018-01-16T23:01:16.262Z,2.90
2018-01-16T23:03:44.619Z,2.90
2018-01-16T23:06:12.119Z,2.90
2018-01-16T23:08:40.353Z,3.00
2018-01-16T23:11:08.227Z,3.00
2018-01-16T23:13:36.179Z,3.00
2018-01-16T23:16:03.766Z,3.10
2018-01-16T23:18:31.531Z,2.90
2018-01-16T23:20:59.911Z,2.90
2018-01-16T23:23:27.671Z,2.90
2018-01-16T23:25:55.170Z,2.80
2018-01-16T23:28:22.896Z,2.90
2018-01-16T23:30:50.402Z,2.80
2018-01-16T23:33:18.413Z,2.90
2018-01-16T23:35:45.878Z,2.80
2018-01-16T23:38:14.378Z,2.90
2018-01-16T23:40:42.323Z,2.90
2018-01-16T23:43:10.698Z,3.00
2018-01-16T23:45:38.199Z,2.90
2018-01-16T23:48:07.030Z,2.90
2018-01-16T23:50:34.539Z,2.90
2018-01-16T23:53:02.066Z,3.00
2018-01-16T23:55:29.566Z,3.00
2018-01-16T23:57:57.438Z,2.90
